createdAt,value
2018-05-29T12:47:23.308Z,70.3
2018-05-29T12:48:13.113Z,70.3
2018-05-29T12:49:02.082Z,70.3
2018-05-29T12:49:53.212Z,70.1
2018-05-29T12:50:42.991Z,69.9
2018-05-29T12:51:33.318Z,69.8
2018-05-29T12:52:23.390Z,69.7
2018-05-29T12:53:14.020Z,69.4
2018-05-29T12:54:03.542Z,69.2
2018-05-29T12:54:53.920Z,69
2018-05-29T12:55:43.732Z,68.8
2018-05-29T12:56:33.698Z,68.6
2018-05-29T12:57:24.179Z,68.6
2018-05-29T12:58:13.849Z,68.6
2018-05-29T12:59:04.073Z,68.7
2018-05-29T12:59:54.019Z,68.9
2018-05-29T13:00:44.050Z,68.9
2018-05-29T13:01:34.103Z,68.9
2018-05-29T13:02:24.533Z,68.9
2018-05-29T13:03:14.218Z,68.9
2018-05-29T13:04:04.610Z,68.9
2018-05-29T13:04:54.641Z,69
2018-05-29T13:05:43.852Z,69.1
2018-05-29T13:06:34.510Z,69.1
2018-05-29T13:07:24.534Z,69.1
2018-05-29T13:08:13.786Z,69.1
2018-05-29T13:09:04.653Z,69
2018-05-29T13:09:54.428Z,68.9
2018-05-29T13:10:45.113Z,68.8
2018-05-29T13:11:34.299Z,68.6
2018-05-29T13:12:24.634Z,68.5
2018-05-29T13:13:14.993Z,68.6
2018-05-29T13:14:05.029Z,68.6
2018-05-29T13:14:55.382Z,68.6
2018-05-29T13:15:45.471Z,68.6
2018-05-29T13:16:34.763Z,68.6
2018-05-29T13:17:25.560Z,68.6
2018-05-29T13:18:15.642Z,68.6
2018-05-29T13:19:05.728Z,68.6
2018-05-29T13:19:55.780Z,68.6
2018-05-29T13:20:45.554Z,68.6
2018-05-29T13:21:35.340Z,68.6
2018-05-29T13:22:25.440Z,68.5
2018-05-29T13:23:16.045Z,68.5
2018-05-29T13:24:06.099Z,68.5
2018-05-29T13:24:56.152Z,68.5
2018-05-29T13:25:45.929Z,68.4
2018-05-29T13:26:36.284Z,68.4
2018-05-29T13:27:25.822Z,68.3
2018-05-29T13:28:15.891Z,68.1
2018-05-29T13:29:06.469Z,68
2018-05-29T13:29:56.543Z,67.9
2018-05-29T13:30:46.051Z,67.9
2018-05-29T13:31:36.388Z,68
2018-05-29T13:32:26.723Z,68
2018-05-29T13:33:16.503Z,67.9
2018-05-29T13:34:06.577Z,67.9
2018-05-29T13:34:56.936Z,67.8
2018-05-29T13:35:46.756Z,67.8
2018-05-29T13:36:36.785Z,67.5
2018-05-29T13:37:27.159Z,67.3
2018-05-29T13:38:17.168Z,67.2
2018-05-29T13:39:07.401Z,67.1
2018-05-29T13:39:57.322Z,67.1
2018-05-29T13:40:47.363Z,67
2018-05-29T13:41:37.170Z,66.9
2018-05-29T13:42:27.244Z,66.8
2018-05-29T13:43:16.713Z,66.8
2018-05-29T13:44:06.848Z,66.8
2018-05-29T13:44:57.112Z,66.7
2018-05-29T13:45:46.901Z,66.6
2018-05-29T13:46:37.817Z,66.6
2018-05-29T13:47:27.582Z,66.6
2018-05-29T13:48:17.707Z,66.5
2018-05-29T13:49:07.966Z,66.5
2018-05-29T13:49:58.068Z,66.4
2018-05-29T13:50:47.021Z,66.4
2018-05-29T13:51:38.169Z,66.3
2018-05-29T13:52:27.685Z,66.3
2018-05-29T13:53:18.040Z,66.1
2018-05-29T13:54:07.251Z,65.8
2018-05-29T13:54:58.419Z,65.4
2018-05-29T13:55:48.495Z,65.4
2018-05-29T13:56:38.094Z,65.3
2018-05-29T13:57:28.434Z,65.1
2018-05-29T13:58:18.738Z,65
2018-05-29T13:59:08.478Z,64.9
2018-05-29T13:59:57.681Z,64.8
2018-05-29T14:00:48.691Z,64.7
2018-05-29T14:01:38.710Z,64.6
2018-05-29T14:02:28.748Z,64.6
2018-05-29T14:03:19.182Z,64.6
2018-05-29T14:04:09.161Z,64.5
2018-05-29T14:04:59.219Z,64.4
2018-05-29T14:05:49.006Z,64.4
2018-05-29T14:06:39.423Z,64.4
2018-05-29T14:07:29.146Z,64.3
2018-05-29T14:08:18.642Z,64.3
2018-05-29T14:09:09.898Z,64.3
2018-05-29T14:09:59.315Z,64.1
2018-05-29T14:10:49.374Z,64.1
2018-05-29T14:11:39.164Z,64
2018-05-29T14:12:28.957Z,63.9
2018-05-29T14:13:19.582Z,63.9
2018-05-29T14:14:09.932Z,63.8
2018-05-29T14:14:59.943Z,63.7
2018-05-29T14:15:49.487Z,63.6
2018-05-29T14:16:40.143Z,63.6
2018-05-29T14:17:29.347Z,63.5
2018-05-29T14:18:20.296Z,63.4
2018-05-29T14:19:10.374Z,63.3
2018-05-29T14:20:00.413Z,63.3
2018-05-29T14:20:50.513Z,63.1
2018-05-29T14:21:40.231Z,63.1
2018-05-29T14:22:30.034Z,62.9
2018-05-29T14:23:20.186Z,62.8
2018-05-29T14:24:10.721Z,62.9
2018-05-29T14:24:59.635Z,62.7
2018-05-29T14:25:50.551Z,62.6
2018-05-29T14:26:40.421Z,62.6
2018-05-29T14:27:30.676Z,62.4
2018-05-29T14:28:20.502Z,62.4
2018-05-29T14:29:10.808Z,62.3
2018-05-29T14:30:01.139Z,62.2
2018-05-29T14:30:50.941Z,62.1
2018-05-29T14:31:41.274Z,62
2018-05-29T14:32:30.783Z,61.9
2018-05-29T14:33:21.386Z,61.8
2018-05-29T14:34:10.897Z,61.8
2018-05-29T14:35:00.978Z,61.6
2018-05-29T14:35:51.594Z,61.4
2018-05-29T14:36:41.645Z,61.3
2018-05-29T14:37:31.703Z,61.3
2018-05-29T14:38:21.540Z,61.1
2018-05-29T14:39:11.842Z,61.1
2018-05-29T14:40:01.052Z,60.9
2018-05-29T14:40:51.422Z,60.9
2018-05-29T14:41:41.992Z,60.8
2018-05-29T14:42:32.119Z,60.6
2018-05-29T14:43:21.925Z,60.6
2018-05-29T14:44:13.374Z,60.4
2018-05-29T14:45:02.012Z,60.4
2018-05-29T14:45:52.067Z,60.3
2018-05-29T14:46:42.409Z,60.2
2018-05-29T14:47:32.182Z,60.1
2018-05-29T14:48:22.301Z,59.9
2018-05-29T14:49:12.646Z,59.9
2018-05-29T14:50:02.671Z,59.8
2018-05-29T14:50:52.463Z,59.7
2018-05-29T14:51:42.775Z,59.6
2018-05-29T14:52:32.853Z,59.4
2018-05-29T14:53:22.933Z,59.4
2018-05-29T14:54:12.969Z,59.3
2018-05-29T14:55:03.039Z,59.1
2018-05-29T14:55:52.866Z,59
2018-05-29T14:56:42.923Z,58.9
2018-05-29T14:57:32.442Z,58.8
2018-05-29T14:58:23.347Z,58.8
2018-05-29T14:59:12.804Z,58.6
2018-05-29T15:00:03.448Z,58.5
2018-05-29T15:00:51.822Z,58.4
2018-05-29T15:01:43.573Z,58.3
2018-05-29T15:02:32.794Z,58.2
2018-05-29T15:03:23.165Z,58.1
2018-05-29T15:04:13.497Z,57.9
2018-05-29T15:05:03.841Z,57.9
2018-05-29T15:06:43.661Z,57.6
2018-05-29T15:07:33.987Z,57.5
2018-05-29T15:08:23.100Z,57.4
2018-05-29T15:09:14.043Z,57.3
2018-05-29T15:10:04.222Z,56.9
2018-05-29T15:10:54.044Z,55.8
2018-05-29T15:11:44.341Z,54.8
2018-05-29T15:12:33.905Z,53.9
2018-05-29T15:13:23.935Z,53.2
2018-05-29T15:14:13.990Z,52.6
2018-05-29T15:15:04.064Z,52
2018-05-29T15:15:54.499Z,51.5
2018-05-29T15:16:44.484Z,51.1
2018-05-29T15:17:34.290Z,50.8
2018-05-29T15:18:24.866Z,50.4
2018-05-29T15:19:13.881Z,50.1
2018-05-29T15:20:04.463Z,49.8
2018-05-29T15:20:54.843Z,49.4
2018-05-29T15:21:45.101Z,49.2
2018-05-29T15:22:34.426Z,48.9
2018-05-29T15:23:24.511Z,48.7
2018-05-29T15:24:14.450Z,48.5
2018-05-29T15:25:05.521Z,48.3
2018-05-29T15:25:55.181Z,48.1
2018-05-29T15:26:44.951Z,47.9
2018-05-29T15:27:35.585Z,47.7
2018-05-29T15:28:25.660Z,47.5
2018-05-29T15:29:14.610Z,47.3
2018-05-29T15:30:05.445Z,47.2
2018-05-29T15:30:55.522Z,47.1
2018-05-29T15:31:45.878Z,46.9
2018-05-29T15:32:35.661Z,46.8
2018-05-29T15:33:26.015Z,46.6
2018-05-29T15:34:15.785Z,46.5
2018-05-29T15:35:06.184Z,46.3
2018-05-29T15:35:56.190Z,46.3
2018-05-29T15:36:46.267Z,46.1
2018-05-29T15:37:36.032Z,46
2018-05-29T15:38:26.089Z,45.9
2018-05-29T15:39:16.484Z,45.8
2018-05-29T15:40:06.519Z,45.7
2018-05-29T15:40:56.207Z,45.6
2018-05-29T15:41:46.370Z,45.5
2018-05-29T15:42:36.749Z,45.4
2018-05-29T15:43:26.236Z,45.3
2018-05-29T15:44:16.837Z,45.2
2018-05-29T15:45:06.634Z,45.1
2018-05-29T15:45:56.394Z,45.1
2018-05-29T15:46:47.025Z,44.9
2018-05-29T15:47:36.309Z,44.9
2018-05-29T15:48:26.644Z,44.8
2018-05-29T15:49:17.221Z,44.8
2018-05-29T15:50:06.696Z,44.6
2018-05-29T15:50:57.348Z,44.6
2018-05-29T15:51:47.376Z,44.5
2018-05-29T15:52:37.216Z,44.4
2018-05-29T15:53:28.273Z,44.4
2018-05-29T15:54:17.268Z,44.3
2018-05-29T15:55:07.362Z,44.3
2018-05-29T15:55:57.700Z,44.2
2018-05-29T15:56:47.006Z,44.1
2018-05-29T15:57:37.588Z,44.1
2018-05-29T15:58:27.365Z,44
2018-05-29T15:59:17.955Z,43.9
2018-05-29T16:00:08.098Z,43.9
2018-05-29T16:00:57.225Z,43.8
2018-05-29T16:01:48.148Z,43.8
2018-05-29T16:02:38.202Z,43.7
2018-05-29T16:03:28.285Z,43.6
2018-05-29T16:04:18.107Z,43.6
2018-05-29T16:05:08.399Z,43.5
2018-05-29T16:05:57.600Z,43.4
2018-05-29T16:06:48.605Z,43.4
2018-05-29T16:07:38.327Z,43.3
2018-05-29T16:08:28.221Z,43.3
2018-05-29T16:09:18.788Z,43.3
2018-05-29T16:10:08.563Z,43.2
2018-05-29T16:10:58.917Z,43.1
2018-05-29T16:11:48.704Z,43.1
2018-05-29T16:12:39.042Z,43
2018-05-29T16:13:28.793Z,42.9
2018-05-29T16:14:19.065Z,42.9
2018-05-29T16:15:09.012Z,42.9
2018-05-29T16:15:58.665Z,42.8
2018-05-29T16:16:48.895Z,42.8
2018-05-29T16:17:38.616Z,42.7
2018-05-29T16:18:28.397Z,42.6
2018-05-29T16:19:19.614Z,42.6
2018-05-29T16:20:09.078Z,42.6
2018-05-29T16:20:59.125Z,42.6
2018-05-29T16:21:49.496Z,42.4
2018-05-29T16:22:39.293Z,42.4
2018-05-29T16:23:29.675Z,42.4
2018-05-29T16:24:19.746Z,42.4
2018-05-29T16:25:09.761Z,42.3
2018-05-29T16:25:59.278Z,42.3
2018-05-29T16:26:50.142Z,42.2
2018-05-29T16:27:39.672Z,42.2
2018-05-29T16:28:30.065Z,42.1
2018-05-29T16:29:20.047Z,42.1
2018-05-29T16:30:10.438Z,42.1
2018-05-29T16:30:59.618Z,42
2018-05-29T16:31:49.995Z,41.9
2018-05-29T16:32:40.311Z,41.9
2018-05-29T16:33:30.373Z,41.9
2018-05-29T16:34:20.194Z,41.8
2018-05-29T16:35:10.209Z,41.8
2018-05-29T16:36:00.885Z,41.8
2018-05-29T16:36:50.655Z,41.8
2018-05-29T16:37:40.159Z,41.7
2018-05-29T16:38:30.497Z,41.7
2018-05-29T16:39:21.108Z,41.6
2018-05-29T16:40:10.592Z,41.6
2018-05-29T16:41:00.934Z,41.6
2018-05-29T16:41:51.346Z,41.5
2018-05-29T16:42:41.367Z,41.5
2018-05-29T16:43:31.451Z,41.4
2018-05-29T16:44:21.208Z,41.4
2018-05-29T16:45:10.979Z,41.4
2018-05-29T16:46:01.304Z,41.4
2018-05-29T16:46:51.675Z,41.3
2018-05-29T16:47:41.829Z,41.3
2018-05-29T16:48:31.795Z,41.3
2018-05-29T16:49:21.868Z,41.3
2018-05-29T16:50:11.727Z,41.2
2018-05-29T16:51:01.450Z,41.2
2018-05-29T16:51:51.737Z,41.1
2018-05-29T16:52:41.215Z,41.1
2018-05-29T16:53:31.820Z,41.1
2018-05-29T16:54:21.640Z,41.1
2018-05-29T16:55:12.245Z,41
2018-05-29T16:56:02.334Z,41
2018-05-29T16:56:51.815Z,41
2018-05-29T16:57:42.430Z,40.9
2018-05-29T16:58:31.939Z,40.9
2018-05-29T16:59:22.360Z,40.9
2018-05-29T17:00:12.673Z,40.9
2018-05-29T17:01:02.391Z,40.8
2018-05-29T17:01:52.485Z,40.8
2018-05-29T17:02:42.604Z,40.8
2018-05-29T17:03:32.965Z,40.7
2018-05-29T17:04:22.756Z,40.7
2018-05-29T17:05:13.113Z,40.7
2018-05-29T17:06:02.848Z,40.7
2018-05-29T17:06:52.900Z,40.6
2018-05-29T17:07:42.418Z,40.6
2018-05-29T17:08:32.781Z,40.6
2018-05-29T17:09:23.170Z,40.6
2018-05-29T17:10:13.224Z,40.6
2018-05-29T17:11:03.531Z,40.5
2018-05-29T17:11:53.606Z,40.5
2018-05-29T17:12:43.022Z,40.5
2018-05-29T17:13:33.418Z,40.4
2018-05-29T17:14:23.705Z,40.4
2018-05-29T17:15:14.359Z,40.4
2018-05-29T17:16:03.849Z,40.4
2018-05-29T17:16:53.874Z,40.3
2018-05-29T17:17:43.932Z,40.3
2018-05-29T17:18:34.008Z,40.3
2018-05-29T17:19:24.058Z,40.3
2018-05-29T17:20:14.122Z,40.3
2018-05-29T17:21:03.896Z,40.3
2018-05-29T17:21:54.096Z,40.2
2018-05-29T17:22:44.285Z,40.2
2018-05-29T17:23:33.329Z,40.2
2018-05-29T17:24:24.489Z,40.1
2018-05-29T17:25:13.932Z,40.1
2018-05-29T17:26:04.594Z,40.1
2018-05-29T17:26:54.682Z,40.1
2018-05-29T17:27:44.413Z,40
2018-05-29T17:28:34.750Z,39.9
2018-05-29T17:29:24.320Z,39.9
2018-05-29T17:30:14.359Z,39.9
2018-05-29T17:31:04.970Z,39.8
2018-05-29T17:31:55.416Z,39.8
2018-05-29T17:32:44.606Z,39.8
2018-05-29T17:33:34.121Z,39.8
2018-05-29T17:34:24.989Z,39.7
2018-05-29T17:35:15.021Z,39.7
2018-05-29T17:36:04.776Z,39.6
2018-05-29T17:36:55.139Z,39.6
2018-05-29T17:37:45.498Z,39.6
2018-05-29T17:38:35.564Z,39.6
2018-05-29T17:39:25.612Z,39.6
2018-05-29T17:40:15.371Z,39.6
2018-05-29T17:41:05.771Z,39.5
2018-05-29T17:41:55.775Z,39.4
2018-05-29T17:42:45.908Z,39.4
2018-05-29T17:43:35.632Z,39.4
2018-05-29T17:44:25.713Z,39.4
2018-05-29T17:45:15.795Z,39.4
2018-05-29T17:46:05.322Z,39.4
2018-05-29T17:46:56.130Z,39.4
2018-05-29T17:47:46.208Z,39.3
2018-05-29T17:48:36.305Z,39.3
2018-05-29T17:49:26.100Z,39
2018-05-29T17:50:16.423Z,38.6
2018-05-29T17:51:06.172Z,38.2
2018-05-29T17:51:55.992Z,37.8
2018-05-29T17:52:46.300Z,37.5
2018-05-29T17:53:36.685Z,37.2
2018-05-29T17:54:26.419Z,36.9
2018-05-29T17:55:16.840Z,36.6
2018-05-29T17:56:06.601Z,36.3
2018-05-29T17:56:56.664Z,35.9
2018-05-29T17:57:46.139Z,35.6
2018-05-29T17:58:36.762Z,35.3
2018-05-29T17:59:26.535Z,35.1
2018-05-29T18:00:17.178Z,34.8
2018-05-29T18:01:07.022Z,34.6
2018-05-29T18:01:57.027Z,34.4
2018-05-29T18:02:46.830Z,34.3
2018-05-29T18:03:36.152Z,34.1
2018-05-29T18:04:27.203Z,34
2018-05-29T18:05:17.545Z,33.9
2018-05-29T18:06:07.592Z,33.8
2018-05-29T18:06:57.651Z,33.7
2018-05-29T18:07:47.456Z,33.6
2018-05-29T18:08:37.255Z,33.4
2018-05-29T18:09:27.354Z,33.4
2018-05-29T18:10:17.939Z,33.3
2018-05-29T18:11:07.454Z,33.2
2018-05-29T18:11:57.551Z,33.1
2018-05-29T18:12:47.842Z,33
2018-05-29T18:13:37.600Z,32.9
2018-05-29T18:14:28.239Z,32.8
2018-05-29T18:15:18.330Z,32.8
2018-05-29T18:16:08.095Z,32.6
2018-05-29T18:16:58.182Z,32.6
2018-05-29T18:17:47.395Z,32.5
2018-05-29T18:18:37.754Z,32.4
2018-05-29T18:19:28.417Z,32.4
2018-05-29T18:20:18.202Z,32.3
2018-05-29T18:21:08.202Z,32.3
2018-05-29T18:21:58.846Z,32.2
2018-05-29T18:22:48.115Z,32.1
2018-05-29T18:23:38.942Z,32
2018-05-29T18:24:28.505Z,31.9
2018-05-29T18:25:18.851Z,31.9
2018-05-29T18:26:08.928Z,31.9
2018-05-29T18:26:58.951Z,31.8
2018-05-29T18:27:48.166Z,31.8
2018-05-29T18:28:38.792Z,31.7
2018-05-29T18:29:28.872Z,31.6
2018-05-29T18:30:18.885Z,31.6
2018-05-29T18:31:10.061Z,31.5
2018-05-29T18:31:59.651Z,31.4
2018-05-29T18:32:49.437Z,31.4
2018-05-29T18:33:38.868Z,31.4
2018-05-29T18:34:29.497Z,31.3
2018-05-29T18:35:19.578Z,31.3
2018-05-29T18:36:09.919Z,31.3
2018-05-29T18:36:59.396Z,31.2
2018-05-29T18:37:49.766Z,31.2
2018-05-29T18:38:39.800Z,31.2
2018-05-29T18:39:29.931Z,31.1
2018-05-29T18:40:19.384Z,31.1
2018-05-29T18:41:10.355Z,31.1
2018-05-29T18:41:59.517Z,31
2018-05-29T18:42:49.877Z,31
2018-05-29T18:43:40.073Z,30.9
2018-05-29T18:44:30.897Z,30.9
2018-05-29T18:45:20.348Z,30.9
2018-05-29T18:46:10.442Z,30.9
2018-05-29T18:47:00.990Z,30.9
2018-05-29T18:47:50.466Z,30.9
2018-05-29T18:48:40.289Z,30.8
2018-05-29T18:49:31.085Z,30.8
2018-05-29T18:50:21.626Z,30.8
2018-05-29T18:51:11.053Z,30.8
2018-05-29T18:52:00.550Z,30.7
2018-05-29T18:52:51.159Z,30.7
2018-05-29T18:53:40.655Z,30.7
2018-05-29T18:54:30.778Z,30.6
2018-05-29T18:55:21.357Z,30.6
2018-05-29T18:56:11.152Z,30.6
2018-05-29T18:57:01.285Z,30.6
2018-05-29T18:57:50.706Z,30.5
2018-05-29T18:58:41.647Z,30.5
2018-05-29T18:59:31.421Z,30.5
2018-05-29T19:00:21.761Z,30.4
2018-05-29T19:01:11.773Z,30.4
2018-05-29T19:02:01.884Z,30.4
2018-05-29T19:02:51.673Z,30.4
2018-05-29T19:03:41.570Z,30.4
2018-05-29T19:04:31.595Z,30.4
2018-05-29T19:05:21.625Z,30.3
2018-05-29T19:06:11.906Z,30.3
2018-05-29T19:07:01.965Z,30.3
2018-05-29T19:07:52.354Z,30.3
2018-05-29T19:08:41.780Z,30.3
2018-05-29T19:09:31.912Z,30.3
2018-05-29T19:10:22.247Z,30.3
2018-05-29T19:11:11.762Z,30.3
2018-05-29T19:12:02.089Z,30.2
2018-05-29T19:12:52.179Z,30.2
2018-05-29T19:13:42.234Z,30.2
2018-05-29T19:14:32.661Z,30.2
2018-05-29T19:15:22.949Z,30.2
2018-05-29T19:16:12.665Z,30.1
2018-05-29T19:17:02.828Z,30.1
2018-05-29T19:17:52.289Z,30.1
2018-05-29T19:18:42.369Z,30.1
2018-05-29T19:19:32.955Z,30.1
2018-05-29T19:20:22.222Z,30.1
2018-05-29T19:21:12.514Z,30.1
2018-05-29T19:22:03.198Z,30.1
2018-05-29T19:22:54.236Z,30.1
2018-05-29T19:23:43.501Z,30.1
2018-05-29T19:24:33.285Z,30.1
2018-05-29T19:25:22.856Z,30.1
2018-05-29T19:26:13.715Z,30.1
2018-05-29T19:27:03.773Z,30
2018-05-29T19:27:53.256Z,30
2018-05-29T19:28:43.029Z,30.1
2018-05-29T19:29:32.848Z,30
2018-05-29T19:30:24.098Z,30
2018-05-29T19:31:13.283Z,30
2018-05-29T19:32:03.929Z,29.9
2018-05-29T19:32:53.941Z,29.9
2018-05-29T19:33:43.727Z,29.9
2018-05-29T19:34:34.387Z,29.9
2018-05-29T19:35:24.379Z,29.9
2018-05-29T19:36:14.226Z,29.9
2018-05-29T19:37:04.222Z,29.9
2018-05-29T19:37:54.591Z,29.9
2018-05-29T19:38:44.378Z,29.9
2018-05-29T19:39:34.315Z,29.9
2018-05-29T19:40:23.777Z,29.9
2018-05-29T19:41:14.104Z,29.9
2018-05-29T19:42:04.377Z,29.9
2018-05-29T19:42:54.419Z,29.9
2018-05-29T19:43:44.469Z,29.9
2018-05-29T19:44:34.575Z,29.8
2018-05-29T19:45:24.931Z,29.8
2018-05-29T19:46:15.235Z,29.9
2018-05-29T19:47:05.376Z,29.8
2018-05-29T19:47:55.522Z,29.8
2018-05-29T19:48:44.877Z,29.7
2018-05-29T19:49:35.211Z,29.6
2018-05-29T19:50:25.572Z,29.5
2018-05-29T19:51:15.980Z,29.4
2018-05-29T19:52:05.394Z,29.3
2018-05-29T19:52:54.891Z,29.2
2018-05-29T19:53:45.877Z,29.1
2018-05-29T19:54:35.337Z,28.9
2018-05-29T19:55:25.693Z,28.8
2018-05-29T19:56:15.724Z,28.6
2018-05-29T19:57:05.209Z,28.4
2018-05-29T19:57:56.181Z,28.3
2018-05-29T19:58:45.366Z,28.2
2018-05-29T19:59:36.312Z,28.1
2018-05-29T20:00:25.825Z,27.9
2018-05-29T20:01:16.765Z,27.9
2018-05-29T20:02:55.688Z,27.7
2018-05-29T20:03:45.721Z,27.6
2018-05-29T20:04:36.649Z,27.6
2018-05-29T20:05:25.839Z,27.6
2018-05-29T20:06:16.764Z,27.6
2018-05-29T20:07:06.384Z,27.5
2018-05-29T20:07:56.881Z,27.4
2018-05-29T20:08:47.007Z,27.4
2018-05-29T20:09:36.221Z,27.4
2018-05-29T20:10:27.183Z,27.4
2018-05-29T20:11:16.111Z,27.3
2018-05-29T20:12:06.723Z,27.3
2018-05-29T20:12:56.763Z,27.3
2018-05-29T20:13:47.411Z,27.3
2018-05-29T20:14:37.143Z,27.2
2018-05-29T20:15:27.450Z,27.2
2018-05-29T20:16:17.568Z,27.2
2018-05-29T20:17:06.969Z,27.1
2018-05-29T20:17:57.367Z,27.1
2018-05-29T20:18:47.350Z,27.1
2018-05-29T20:19:36.931Z,27.1
2018-05-29T20:20:27.795Z,27.1
2018-05-29T20:21:17.883Z,27.1
2018-05-29T20:22:07.658Z,27.1
2018-05-29T20:22:57.460Z,27.1
2018-05-29T20:23:47.875Z,27
2018-05-29T20:24:37.930Z,27
2018-05-29T20:25:27.958Z,26.9
2018-05-29T20:26:17.502Z,26.9
2018-05-29T20:27:07.236Z,26.9
2018-05-29T20:27:58.472Z,26.9
2018-05-29T20:28:47.936Z,26.8
2018-05-29T20:29:38.275Z,26.8
2018-05-29T20:30:28.060Z,26.8
2018-05-29T20:31:19.002Z,26.8
2018-05-29T20:32:08.211Z,26.8
2018-05-29T20:32:58.225Z,26.8
2018-05-29T20:33:48.917Z,26.8
2018-05-29T20:34:38.978Z,26.7
2018-05-29T20:35:27.657Z,26.7
2018-05-29T20:36:18.605Z,26.7
2018-05-29T20:37:08.152Z,26.7
2018-05-29T20:37:58.427Z,26.7
2018-05-29T20:38:49.557Z,26.7
2018-05-29T20:39:38.782Z,26.7
2018-05-29T20:40:29.381Z,26.7
2018-05-29T20:41:18.871Z,26.6
2018-05-29T20:42:09.263Z,26.6
2018-05-29T20:42:59.338Z,26.6
2018-05-29T20:43:49.602Z,26.6
2018-05-29T20:44:38.910Z,26.6
2018-05-29T20:45:29.804Z,26.6
2018-05-29T20:46:19.291Z,26.6
2018-05-29T20:47:09.637Z,26.6
2018-05-29T20:47:59.983Z,26.6
2018-05-29T20:48:49.779Z,26.6
2018-05-29T20:49:39.548Z,26.6
2018-05-29T20:50:29.658Z,26.6
2018-05-29T20:51:19.672Z,26.6
2018-05-29T20:52:09.975Z,26.6
2018-05-29T20:52:59.756Z,26.6
2018-05-29T20:53:50.637Z,26.6
2018-05-29T20:54:39.920Z,26.6
2018-05-29T20:55:30.545Z,26.6
2018-05-29T20:56:20.390Z,26.6
2018-05-29T20:57:10.388Z,26.6
2018-05-29T20:58:00.769Z,26.5
2018-05-29T20:58:50.542Z,26.6
2018-05-29T20:59:40.018Z,26.6
2018-05-29T21:00:30.379Z,26.6
2018-05-29T21:01:20.704Z,26.6
2018-05-29T21:02:10.791Z,26.6
2018-05-29T21:03:00.797Z,26.5
2018-05-29T21:03:50.928Z,26.5
2018-05-29T21:04:40.932Z,26.5
2018-05-29T21:05:31.338Z,26.5
2018-05-29T21:06:21.103Z,26.5
2018-05-29T21:07:11.426Z,26.5
2018-05-29T21:08:01.524Z,26.5
2018-05-29T21:08:51.581Z,26.5
2018-05-29T21:09:41.668Z,26.5
2018-05-29T21:10:31.072Z,26.5
2018-05-29T21:11:21.482Z,26.5
2018-05-29T21:12:11.851Z,26.5
2018-05-29T21:13:01.594Z,26.5
2018-05-29T21:13:51.916Z,26.5
2018-05-29T21:14:41.992Z,26.5
2018-05-29T21:15:31.601Z,26.5
2018-05-29T21:16:21.264Z,26.5
2018-05-29T21:17:12.210Z,26.5
2018-05-29T21:18:01.986Z,26.5
2018-05-29T21:18:52.064Z,26.5
2018-05-29T21:19:42.139Z,26.5
2018-05-29T21:20:32.158Z,26.4
2018-05-29T21:21:22.142Z,26.4
2018-05-29T21:22:12.071Z,26.5
2018-05-29T21:23:02.061Z,26.4
2018-05-29T21:23:52.342Z,26.4
2018-05-29T21:24:42.678Z,26.5
2018-05-29T21:25:32.271Z,26.4
2018-05-29T21:26:22.605Z,26.5
2018-05-29T21:27:12.901Z,26.4
2018-05-29T21:28:02.687Z,26.5
2018-05-29T21:28:52.751Z,26.5
2018-05-29T21:29:42.789Z,26.5
2018-05-29T21:30:33.204Z,26.5
2018-05-29T21:31:23.256Z,26.5
2018-05-29T21:32:13.268Z,26.5
2018-05-29T21:33:03.070Z,26.4
2018-05-29T21:33:52.832Z,26.5
2018-05-29T21:34:42.922Z,26.5
2018-05-29T21:35:33.216Z,26.5
2018-05-29T21:36:23.609Z,26.5
2018-05-29T21:37:13.421Z,26.5
2018-05-29T21:38:03.421Z,26.5
2018-05-29T21:38:52.945Z,26.5
2018-05-29T21:39:43.828Z,26.4
2018-05-29T21:40:33.908Z,26.5
2018-05-29T21:41:23.663Z,26.5
2018-05-29T21:42:13.729Z,26.4
2018-05-29T21:43:03.791Z,26.5
2018-05-29T21:43:54.149Z,26.5
2018-05-29T21:44:44.203Z,26.5
2018-05-29T21:45:34.280Z,26.5
2018-05-29T21:46:24.380Z,26.5
2018-05-29T21:47:14.120Z,26.5
2018-05-29T21:48:03.919Z,26.5
2018-05-29T21:48:53.993Z,26.5
2018-05-29T21:49:44.610Z,26.5
2018-05-29T21:50:34.081Z,26.5
2018-05-29T21:51:24.758Z,26.5
2018-05-29T21:52:14.787Z,26.5
2018-05-29T21:53:04.560Z,26.5
2018-05-29T21:53:54.914Z,26.4
2018-05-29T21:54:44.716Z,26.5
2018-05-29T21:55:34.470Z,26.5
2018-05-29T21:56:24.809Z,26.5
2018-05-29T21:57:14.903Z,26.5
2018-05-29T21:58:04.667Z,26.5
2018-05-29T21:58:55.021Z,26.5
2018-05-29T21:59:44.801Z,26.5
2018-05-29T22:00:34.879Z,26.5
2018-05-29T22:01:24.941Z,26.5
2018-05-29T22:02:15.277Z,26.5
2018-05-29T22:03:05.616Z,26.5
2018-05-29T22:03:55.684Z,26.5
2018-05-29T22:04:44.899Z,26.5
2018-05-29T22:05:35.525Z,26.5
2018-05-29T22:06:25.305Z,26.5
2018-05-29T22:07:15.348Z,26.5
2018-05-29T22:08:05.187Z,26.5
2018-05-29T22:08:54.962Z,26.5
2018-05-29T22:09:46.142Z,26.5
2018-05-29T22:10:36.222Z,26.4
2018-05-29T22:11:26.255Z,26.5
2018-05-29T22:12:16.020Z,26.5
2018-05-29T22:13:06.380Z,26.5
2018-05-29T22:13:56.196Z,26.5
2018-05-29T22:14:46.004Z,26.4
2018-05-29T22:15:36.582Z,26.5
2018-05-29T22:16:26.618Z,26.4
2018-05-29T22:17:16.697Z,26.5
2018-05-29T22:18:06.798Z,26.5
2018-05-29T22:18:56.808Z,26.5
2018-05-29T22:19:46.342Z,26.5
2018-05-29T22:20:36.929Z,26.5
2018-05-29T22:21:27.106Z,26.5
2018-05-29T22:22:16.800Z,26.5
2018-05-29T22:23:06.886Z,26.5
2018-05-29T22:23:56.685Z,26.5
2018-05-29T22:24:47.289Z,26.4
2018-05-29T22:25:37.070Z,26.4
2018-05-29T22:26:27.439Z,26.5
2018-05-29T22:27:17.481Z,26.5
2018-05-29T22:28:07.536Z,26.5
2018-05-29T22:28:57.326Z,26.5
2018-05-29T22:29:47.631Z,26.5
2018-05-29T22:30:37.995Z,26.5
2018-05-29T22:31:27.530Z,26.5
2018-05-29T22:32:17.886Z,26.5
2018-05-29T22:33:07.916Z,26.5
2018-05-29T22:33:57.710Z,26.4
2018-05-29T22:34:47.523Z,26.5
2018-05-29T22:35:38.163Z,26.5
2018-05-29T22:36:27.878Z,26.5
2018-05-29T22:37:18.210Z,26.5
2018-05-29T22:38:08.039Z,26.5
2018-05-29T22:38:58.331Z,26.5
2018-05-29T22:39:48.147Z,26.5
2018-05-29T22:40:38.176Z,26.5
2018-05-29T22:41:27.982Z,26.5
2018-05-29T22:42:18.650Z,26.5
2018-05-29T22:43:08.114Z,26.5
2018-05-29T22:43:57.940Z,26.5
2018-05-29T22:44:48.503Z,26.5
2018-05-29T22:45:37.685Z,26.5
2018-05-29T22:46:28.369Z,26.5
2018-05-29T22:47:18.121Z,26.5
2018-05-29T22:48:08.807Z,26.5
2018-05-29T22:48:59.155Z,26.5
2018-05-29T22:49:49.192Z,26.5
2018-05-29T22:50:38.976Z,26.5
2018-05-29T22:51:29.339Z,26.5
2018-05-29T22:52:19.093Z,26.5
2018-05-29T22:53:09.159Z,26.5
2018-05-29T22:53:59.275Z,26.5
2018-05-29T22:54:48.744Z,26.5
2018-05-29T22:55:39.095Z,26.5
2018-05-29T22:56:29.543Z,26.5
2018-05-29T22:57:19.780Z,26.5
2018-05-29T22:58:09.564Z,26.5
2018-05-29T22:58:59.615Z,26.4
2018-05-29T22:59:49.652Z,26.5
2018-05-29T23:00:40.005Z,26.4
2018-05-29T23:01:30.103Z,26.4
2018-05-29T23:02:19.874Z,26.5
2018-05-29T23:03:09.907Z,26.5
2018-05-29T23:03:59.950Z,26.5
2018-05-29T23:04:50.358Z,26.5
2018-05-29T23:05:40.578Z,26.5
2018-05-29T23:06:29.901Z,26.5
2018-05-29T23:07:20.322Z,26.5
2018-05-29T23:08:10.031Z,26.5
2018-05-29T23:09:00.349Z,26.5
2018-05-29T23:09:49.610Z,26.5
2018-05-29T23:10:40.569Z,26.5
2018-05-29T23:11:30.837Z,26.5
2018-05-29T23:12:20.901Z,26.5
2018-05-29T23:13:10.997Z,26.5
2018-05-29T23:14:01.008Z,26.5
2018-05-29T23:14:51.104Z,26.5
2018-05-29T23:15:40.584Z,26.5
2018-05-29T23:16:31.151Z,26.5
2018-05-29T23:17:20.994Z,26.5
2018-05-29T23:18:10.501Z,26.5
2018-05-29T23:19:01.385Z,26.5
2018-05-29T23:19:51.185Z,26.5
2018-05-29T23:20:40.673Z,26.5
2018-05-29T23:21:31.030Z,26.5
2018-05-29T23:22:21.067Z,26.5
2018-05-29T23:23:11.460Z,26.5
2018-05-29T23:24:01.796Z,26.5
2018-05-29T23:24:50.981Z,26.5
2018-05-29T23:25:41.642Z,26.5
2018-05-29T23:26:31.743Z,26.5
2018-05-29T23:27:21.749Z,26.5
2018-05-29T23:28:11.827Z,26.5
2018-05-29T23:29:01.635Z,26.5
2018-05-29T23:29:51.737Z,26.5
2018-05-29T23:30:41.739Z,26.5
2018-05-29T23:31:32.080Z,26.5
2018-05-29T23:32:21.867Z,26.5
2018-05-29T23:33:12.501Z,26.5
2018-05-29T23:34:02.264Z,26.5
2018-05-29T23:34:52.338Z,26.5
2018-05-29T23:35:42.554Z,26.5
2018-05-29T23:36:31.914Z,26.5
2018-05-29T23:37:22.778Z,26.5
2018-05-29T23:38:12.614Z,26.5
2018-05-29T23:39:02.923Z,26.5
2018-05-29T23:39:52.457Z,26.5
2018-05-29T23:40:43.062Z,26.5
2018-05-29T23:41:32.860Z,26.5
2018-05-29T23:42:22.913Z,26.5
2018-05-29T23:43:12.682Z,26.5
2018-05-29T23:44:03.314Z,26.5
2018-05-29T23:44:52.810Z,26.5
2018-05-29T23:45:43.462Z,26.5
2018-05-29T23:46:33.482Z,26.5
2018-05-29T23:47:23.572Z,26.5
2018-05-29T23:48:13.628Z,26.5
2018-05-29T23:49:03.396Z,26.5
2018-05-29T23:49:53.782Z,26.5
2018-05-29T23:50:43.811Z,26.5
2018-05-29T23:51:33.855Z,26.5
2018-05-29T23:52:23.945Z,26.4
2018-05-29T23:53:13.466Z,26.5
2018-05-29T23:54:04.145Z,26.5
2018-05-29T23:54:53.557Z,26.5
2018-05-29T23:55:44.213Z,26.5
2018-05-29T23:56:33.981Z,26.5